createdAt,value
2022-11-26T00:02:18.808Z,4.50
2022-11-26T00:05:08.268Z,4.47
2022-11-26T00:08:00.372Z,4.25
2022-11-26T00:10:50.777Z,4.32
2022-11-26T00:13:39.498Z,3.70
2022-11-26T00:16:28.368Z,4.00
2022-11-26T00:19:18.353Z,3.67
2022-11-26T00:22:07.184Z,3.53
2022-11-26T00:24:56.318Z,3.63
2022-11-26T00:27:44.951Z,3.70
2022-11-26T00:30:33.716Z,3.72
2022-11-26T00:33:22.347Z,3.63
2022-11-26T00:36:18.528Z,3.55
2022-11-26T00:39:09.036Z,3.05
2022-11-26T00:41:57.584Z,3.33
2022-11-26T00:44:46.401Z,3.47
2022-11-26T00:47:34.786Z,3.10
2022-11-26T00:50:25.104Z,3.28
2022-11-26T00:53:16.691Z,3.28
2022-11-26T00:56:05.346Z,2.95
2022-11-26T00:58:53.918Z,2.70
2022-11-26T01:01:42.578Z,2.85
2022-11-26T01:04:31.169Z,2.67
2022-11-26T01:07:19.839Z,2.90
2022-11-26T01:10:16.902Z,2.22
2022-11-26T01:13:05.547Z,2.80
2022-11-26T01:15:54.086Z,2.95
2022-11-26T01:18:42.747Z,3.00
2022-11-26T01:21:33.385Z,3.05
2022-11-26T01:24:22.042Z,3.10
2022-11-26T01:27:12.860Z,2.30
2022-11-26T01:30:01.498Z,2.50
2022-11-26T01:32:50.587Z,2.20
2022-11-26T01:35:39.619Z,2.33
2022-11-26T01:38:28.289Z,2.42
2022-11-26T01:41:22.837Z,2.20
2022-11-26T01:44:19.231Z,2.67
2022-11-26T01:47:22.069Z,2.25
2022-11-26T01:50:46.923Z,2.17
2022-11-26T01:53:48.417Z,2.28
2022-11-26T01:56:39.823Z,1.88
2022-11-26T01:59:31.652Z,1.77
2022-11-26T02:02:21.817Z,2.10
2022-11-26T02:05:13.543Z,1.83
2022-11-26T02:08:02.572Z,1.55
2022-11-26T02:10:53.207Z,1.92
2022-11-26T02:13:42.018Z,1.77
2022-11-26T02:16:58.211Z,1.75
2022-11-26T02:20:12.523Z,1.67
2022-11-26T02:23:26.576Z,1.40
2022-11-26T02:26:43.720Z,1.92
2022-11-26T02:30:02.021Z,2.00
2022-11-26T02:33:00.206Z,1.65
2022-11-26T02:35:50.502Z,1.70
2022-11-26T02:38:40.059Z,1.38
2022-11-26T02:41:33.852Z,1.60
2022-11-26T02:44:24.259Z,1.65
2022-11-26T02:47:16.788Z,1.58
2022-11-26T02:50:08.957Z,1.85
2022-11-26T02:52:59.208Z,1.13
2022-11-26T02:55:49.809Z,1.38
2022-11-26T02:58:38.592Z,1.38
2022-11-26T03:01:31.844Z,1.30
2022-11-26T03:04:24.905Z,1.30
2022-11-26T03:07:14.887Z,1.23
2022-11-26T03:10:04.493Z,1.30
2022-11-26T03:12:53.217Z,1.45
2022-11-26T03:15:41.836Z,1.30
2022-11-26T03:18:30.574Z,1.20
2022-11-26T03:21:20.481Z,1.10
2022-11-26T03:24:09.354Z,1.02
2022-11-26T03:26:57.964Z,1.10
2022-11-26T03:29:46.705Z,1.08
2022-11-26T03:32:35.325Z,1.15
2022-11-26T03:35:24.018Z,1.00
2022-11-26T03:38:13.958Z,0.70
2022-11-26T03:41:04.605Z,0.73
2022-11-26T03:43:53.162Z,0.90
2022-11-26T03:46:42.023Z,1.27
2022-11-26T03:49:33.472Z,1.00
2022-11-26T03:52:22.139Z,0.88
2022-11-26T03:55:12.272Z,1.00
2022-11-26T03:58:01.030Z,1.00
2022-11-26T04:00:49.661Z,1.10
2022-11-26T04:03:38.541Z,1.00
2022-11-26T04:06:27.404Z,0.77
2022-11-26T04:09:18.426Z,0.70
2022-11-26T04:12:08.650Z,0.88
2022-11-26T04:14:57.256Z,0.88
2022-11-26T04:17:45.995Z,0.80
2022-11-26T04:20:34.573Z,0.82
2022-11-26T04:23:23.516Z,1.05
2022-11-26T04:26:12.141Z,0.90
2022-11-26T04:29:02.236Z,0.57
2022-11-26T04:31:51.095Z,0.65
2022-11-26T04:34:40.050Z,0.68
2022-11-26T04:37:28.854Z,0.68
2022-11-26T04:40:18.607Z,0.82
2022-11-26T04:43:07.364Z,0.88
2022-11-26T04:45:57.450Z,0.52
2022-11-26T04:48:46.124Z,0.80
2022-11-26T04:51:34.753Z,0.50
2022-11-26T04:54:23.557Z,0.70
2022-11-26T04:57:12.225Z,0.50
2022-11-26T05:00:00.949Z,0.60
2022-11-26T05:02:50.926Z,0.50
2022-11-26T05:05:39.705Z,0.60
2022-11-26T05:08:28.500Z,0.50
2022-11-26T05:11:17.163Z,0.80
2022-11-26T05:14:05.825Z,0.63
2022-11-26T05:16:54.567Z,0.57
2022-11-26T05:19:44.580Z,0.43
2022-11-26T05:22:33.304Z,0.50
2022-11-26T05:25:22.001Z,0.88
2022-11-26T05:28:10.603Z,0.65
2022-11-26T05:31:00.787Z,0.40
2022-11-26T05:33:49.402Z,0.50
2022-11-26T05:36:39.358Z,0.43
2022-11-26T05:39:28.155Z,0.60
2022-11-26T05:42:16.732Z,0.50
2022-11-26T05:45:06.395Z,0.50
2022-11-26T05:47:55.064Z,0.40
2022-11-26T05:50:43.665Z,0.50
2022-11-26T05:53:33.621Z,0.50
2022-11-26T05:56:22.175Z,0.35
2022-11-26T05:59:10.809Z,0.60
2022-11-26T06:01:59.523Z,0.20
2022-11-26T06:04:48.150Z,0.57
2022-11-26T06:07:40.619Z,0.50
2022-11-26T06:10:33.422Z,0.35
2022-11-26T06:13:22.082Z,0.52
2022-11-26T06:16:10.875Z,0.50
2022-11-26T06:19:00.062Z,0.32
2022-11-26T06:21:48.644Z,0.50
2022-11-26T06:24:37.953Z,0.35
2022-11-26T06:27:28.126Z,0.25
2022-11-26T06:30:16.784Z,0.20
2022-11-26T06:33:05.444Z,0.30
2022-11-26T06:35:54.036Z,0.45
2022-11-26T06:38:43.307Z,0.22
2022-11-26T06:41:34.120Z,0.28
2022-11-26T06:44:24.123Z,0.30
2022-11-26T06:47:12.969Z,0.20
2022-11-26T06:50:04.150Z,0.20
2022-11-26T06:52:56.603Z,0.30
2022-11-26T06:55:45.379Z,0.40
2022-11-26T06:58:34.239Z,0.32
2022-11-26T07:01:26.112Z,0.45
2022-11-26T07:04:15.024Z,0.40
2022-11-26T07:07:03.676Z,0.10
2022-11-26T07:09:52.202Z,0.30
2022-11-26T07:12:40.879Z,0.20
2022-11-26T07:15:29.638Z,0.20
2022-11-26T07:18:19.617Z,0.30
2022-11-26T07:21:09.175Z,0.17
2022-11-26T07:23:57.864Z,0.20
2022-11-26T07:26:46.539Z,1.25
2022-11-26T07:29:35.206Z,1.33
2022-11-26T07:32:23.847Z,0.85
2022-11-26T07:35:13.926Z,0.40
2022-11-26T07:38:02.569Z,0.65
2022-11-26T07:40:51.179Z,1.00
2022-11-26T07:43:40.851Z,0.80
2022-11-26T07:46:29.519Z,1.08
2022-11-26T07:49:18.237Z,0.68
2022-11-26T07:52:08.301Z,0.70
2022-11-26T07:54:56.855Z,0.90
2022-11-26T07:57:45.420Z,1.00
2022-11-26T08:00:34.022Z,1.13
2022-11-26T08:03:22.686Z,1.23
2022-11-26T08:06:13.352Z,0.93
2022-11-26T08:09:04.690Z,1.05
2022-11-26T08:11:53.287Z,1.48
2022-11-26T08:14:41.859Z,0.73
2022-11-26T08:17:30.479Z,0.95
2022-11-26T08:20:20.001Z,0.75
2022-11-26T08:23:10.840Z,1.25
2022-11-26T08:29:09.608Z,2.40
2022-11-26T08:31:58.198Z,1.15
2022-11-26T08:34:46.757Z,1.85
2022-11-26T08:37:35.373Z,1.17
2022-11-26T08:40:24.006Z,1.33
2022-11-26T08:43:13.955Z,1.50
2022-11-26T08:46:02.611Z,1.42
2022-11-26T08:48:51.240Z,1.25
2022-11-26T08:51:39.895Z,1.23
2022-11-26T08:54:30.766Z,1.10
2022-11-26T08:57:19.330Z,1.42
2022-11-26T09:00:10.661Z,1.15
2022-11-26T09:02:59.355Z,1.40
2022-11-26T09:05:48.082Z,1.63
2022-11-26T09:08:57.875Z,1.90
2022-11-26T09:11:49.421Z,1.65
2022-11-26T09:14:40.287Z,1.58
2022-11-26T09:17:31.662Z,1.60
2022-11-26T09:20:20.559Z,1.10
2022-11-26T09:23:09.192Z,1.05
2022-11-26T09:25:57.871Z,0.98
2022-11-26T09:28:46.500Z,1.40
2022-11-26T09:31:35.141Z,1.00
2022-11-26T09:34:25.188Z,0.82
2022-11-26T09:37:13.746Z,1.90
2022-11-26T09:40:02.449Z,1.00
2022-11-26T09:43:04.389Z,0.95
2022-11-26T09:45:59.251Z,1.42
2022-11-26T09:48:48.142Z,1.60
2022-11-26T09:51:38.239Z,1.60
2022-11-26T09:54:28.844Z,0.85
2022-11-26T09:57:23.553Z,1.83
2022-11-26T10:00:24.529Z,1.30
2022-11-26T10:03:15.645Z,1.60
2022-11-26T10:06:08.230Z,1.05
2022-11-26T10:09:19.519Z,1.17
2022-11-26T10:12:24.717Z,1.60
2022-11-26T10:15:17.906Z,1.63
2022-11-26T10:18:17.000Z,1.20
2022-11-26T10:21:26.956Z,0.88
2022-11-26T10:24:28.433Z,1.35
2022-11-26T10:27:18.327Z,1.25
2022-11-26T10:30:18.343Z,1.25
2022-11-26T10:33:08.416Z,1.38
2022-11-26T10:35:57.076Z,0.93
2022-11-26T10:38:45.715Z,1.02
2022-11-26T10:41:37.561Z,1.08
2022-11-26T10:44:40.094Z,0.50
2022-11-26T10:47:30.466Z,1.00
2022-11-26T10:53:34.148Z,0.95
2022-11-26T10:56:25.234Z,1.25
2022-11-26T10:59:22.363Z,1.10
2022-11-26T11:02:26.676Z,1.15
2022-11-26T11:05:21.976Z,0.95
2022-11-26T11:08:15.564Z,0.93
2022-11-26T11:11:05.545Z,1.00
2022-11-26T11:13:54.620Z,1.35
2022-11-26T11:16:46.565Z,1.88
2022-11-26T11:19:36.518Z,1.25
2022-11-26T11:22:25.318Z,1.20
2022-11-26T11:25:23.259Z,1.55
2022-11-26T11:28:18.599Z,0.88
2022-11-26T11:31:11.389Z,1.02
2022-11-26T11:34:21.751Z,0.85
2022-11-26T11:37:15.729Z,0.98
2022-11-26T11:40:06.288Z,1.20
2022-11-26T11:42:58.277Z,0.70
2022-11-26T11:45:53.665Z,1.02
2022-11-26T11:48:50.187Z,0.85
2022-11-26T11:51:45.875Z,1.05
2022-11-26T11:54:41.290Z,1.30
2022-11-26T11:57:41.192Z,1.10
2022-11-26T12:00:35.400Z,1.00
2022-11-26T12:03:49.726Z,1.20
2022-11-26T12:06:44.322Z,0.98
2022-11-26T12:09:36.551Z,0.85
2022-11-26T12:12:27.670Z,0.73
2022-11-26T12:15:24.668Z,1.10
2022-11-26T12:18:20.280Z,0.95
2022-11-26T12:21:11.801Z,1.10
2022-11-26T12:24:04.437Z,0.75
2022-11-26T12:26:55.165Z,1.15
2022-11-26T12:29:46.182Z,0.93
2022-11-26T12:32:38.149Z,0.80
2022-11-26T12:35:30.969Z,1.05
2022-11-26T12:38:25.097Z,1.08
2022-11-26T12:41:18.958Z,1.30
2022-11-26T12:44:13.633Z,0.70
2022-11-26T12:47:11.442Z,0.30
2022-11-26T12:50:07.763Z,0.80
2022-11-26T12:53:02.491Z,0.45
2022-11-26T12:55:56.262Z,0.68
2022-11-26T12:58:51.646Z,1.17
2022-11-26T13:01:40.387Z,0.90
2022-11-26T13:04:49.269Z,3.85
2022-11-26T13:07:55.675Z,3.22
2022-11-26T13:10:54.675Z,2.00
2022-11-26T13:13:47.186Z,2.75
2022-11-26T13:16:40.310Z,1.67
2022-11-26T13:19:32.896Z,1.73
2022-11-26T13:22:55.277Z,1.75
2022-11-26T13:25:58.539Z,1.60
2022-11-26T13:29:02.654Z,1.58
2022-11-26T13:32:01.913Z,1.52
2022-11-26T13:35:02.430Z,2.03
2022-11-26T13:38:12.765Z,1.40
2022-11-26T13:41:22.366Z,1.90
2022-11-26T13:44:51.718Z,1.33
2022-11-26T13:47:44.911Z,1.60
2022-11-26T13:50:37.912Z,1.70
2022-11-26T13:53:30.138Z,1.10
2022-11-26T13:56:22.530Z,1.45
2022-11-26T13:59:17.937Z,1.35
2022-11-26T14:02:42.326Z,1.42
2022-11-26T14:06:07.997Z,1.92
2022-11-26T14:08:58.601Z,1.38
2022-11-26T14:11:58.008Z,1.60
2022-11-26T14:14:47.895Z,1.65
2022-11-26T14:17:57.075Z,1.60
2022-11-26T14:21:15.502Z,1.15
2022-11-26T14:24:05.830Z,1.52
2022-11-26T14:26:54.843Z,1.80
2022-11-26T14:29:43.477Z,1.73
2022-11-26T14:32:35.820Z,2.38
2022-11-26T14:35:33.627Z,1.90
2022-11-26T14:38:26.174Z,1.55
2022-11-26T14:41:16.104Z,2.38
2022-11-26T14:44:08.714Z,1.80
2022-11-26T14:46:59.880Z,1.60
2022-11-26T14:49:51.218Z,1.67
2022-11-26T14:52:41.689Z,1.70
2022-11-26T14:55:31.466Z,1.58
2022-11-26T14:58:32.656Z,1.50
2022-11-26T15:01:23.899Z,1.40
2022-11-26T15:04:24.158Z,1.73
2022-11-26T15:07:25.544Z,1.63
2022-11-26T15:10:22.086Z,1.02
2022-11-26T15:13:15.854Z,1.73
2022-11-26T15:16:26.989Z,1.38
2022-11-26T15:19:16.511Z,1.42
2022-11-26T15:22:07.988Z,1.45
2022-11-26T15:24:56.806Z,1.73
2022-11-26T15:27:53.302Z,3.03
2022-11-26T15:30:41.945Z,2.50
2022-11-26T15:33:33.653Z,2.80
2022-11-26T15:36:22.334Z,3.65
2022-11-26T15:39:25.876Z,3.38
2022-11-26T15:42:28.192Z,2.38
2022-11-26T15:45:18.127Z,4.00
2022-11-26T15:48:07.753Z,3.67
2022-11-26T15:50:59.316Z,5.85
2022-11-26T15:53:49.722Z,4.57
2022-11-26T15:56:39.646Z,3.88
2022-11-26T15:59:29.936Z,4.40
2022-11-26T16:02:20.605Z,3.83
2022-11-26T16:05:23.992Z,3.05
2022-11-26T16:08:26.873Z,2.78
2022-11-26T16:11:23.601Z,2.67
2022-11-26T16:14:29.062Z,3.42
2022-11-26T16:17:19.439Z,5.22
2022-11-26T16:20:18.361Z,3.08
2022-11-26T16:23:07.013Z,2.60
2022-11-26T16:26:11.909Z,3.10
2022-11-26T16:29:00.529Z,3.85
2022-11-26T16:31:49.151Z,2.40
2022-11-26T16:34:38.169Z,2.10
2022-11-26T16:37:28.727Z,2.58
2022-11-26T16:40:18.970Z,2.95
2022-11-26T16:43:08.962Z,2.75
2022-11-26T16:45:57.656Z,2.58
2022-11-26T16:48:47.118Z,2.65
2022-11-26T16:51:35.748Z,1.80
2022-11-26T16:54:24.299Z,2.35
2022-11-26T16:57:15.807Z,1.95
2022-11-26T17:00:08.618Z,2.33
2022-11-26T17:02:57.271Z,2.28
2022-11-26T17:05:45.951Z,1.55
2022-11-26T17:08:35.975Z,1.38
2022-11-26T17:11:24.995Z,1.20
2022-11-26T17:14:14.087Z,1.92
2022-11-26T17:17:04.164Z,1.67
2022-11-26T17:19:53.030Z,1.52
2022-11-26T17:22:41.894Z,1.23
2022-11-26T17:25:31.008Z,1.73
2022-11-26T17:28:20.999Z,1.45
2022-11-26T17:31:09.605Z,1.23
2022-11-26T17:33:59.702Z,1.40
2022-11-26T17:36:49.490Z,1.92
2022-11-26T17:39:38.435Z,1.33
2022-11-26T17:42:29.093Z,1.73
2022-11-26T17:45:21.071Z,1.02
2022-11-26T17:48:13.368Z,0.73
2022-11-26T17:51:03.416Z,1.13
2022-11-26T17:53:52.044Z,0.90
2022-11-26T17:56:40.759Z,0.90
2022-11-26T17:59:29.639Z,1.15
2022-11-26T18:02:18.294Z,1.00
2022-11-26T18:05:07.810Z,1.25
2022-11-26T18:07:58.109Z,0.80
2022-11-26T18:10:46.888Z,1.38
2022-11-26T18:13:35.593Z,2.20
2022-11-26T18:16:24.288Z,117.28
2022-11-26T18:19:14.715Z,541.80
2022-11-26T18:22:03.488Z,528.53
2022-11-26T18:24:57.068Z,484.10
2022-11-26T18:27:46.474Z,400.48
2022-11-26T18:30:35.117Z,96.57
2022-11-26T18:33:23.762Z,278.33
2022-11-26T18:36:12.729Z,352.92
2022-11-26T18:39:01.777Z,453.90
2022-11-26T18:41:54.493Z,519.03
2022-11-26T18:44:45.933Z,536.35
2022-11-26T18:47:34.893Z,559.28
2022-11-26T18:50:23.468Z,540.65
2022-11-26T18:53:12.188Z,497.92
2022-11-26T18:56:01.029Z,486.08
2022-11-26T18:58:51.788Z,461.90
2022-11-26T19:01:40.620Z,427.38
2022-11-26T19:04:29.329Z,407.23
2022-11-26T19:07:18.006Z,380.67
2022-11-26T19:10:07.934Z,383.33
2022-11-26T19:12:56.573Z,183.93
2022-11-26T19:15:47.655Z,56.33
2022-11-26T19:18:43.157Z,69.88
2022-11-26T19:21:33.075Z,94.22
2022-11-26T19:24:21.768Z,102.80
2022-11-26T19:27:10.360Z,106.18
2022-11-26T19:29:58.946Z,106.00
2022-11-26T19:32:48.898Z,99.95
2022-11-26T19:35:40.340Z,98.13
2022-11-26T19:38:28.977Z,100.68
2022-11-26T19:41:21.318Z,101.70
2022-11-26T19:44:13.958Z,101.35
2022-11-26T19:47:02.668Z,97.72
2022-11-26T19:49:52.658Z,96.70
2022-11-26T19:52:46.467Z,96.20
2022-11-26T19:55:36.443Z,97.47
2022-11-26T19:58:25.404Z,96.72
2022-11-26T20:01:15.635Z,95.13
2022-11-26T20:04:06.015Z,90.72
2022-11-26T20:06:56.072Z,89.93
2022-11-26T20:09:44.671Z,91.93
2022-11-26T20:12:33.356Z,90.22
2022-11-26T20:15:21.981Z,86.35
2022-11-26T20:18:11.305Z,87.18
2022-11-26T20:21:00.182Z,84.88
2022-11-26T20:23:52.117Z,88.97
2022-11-26T20:26:42.995Z,85.03
2022-11-26T20:29:31.696Z,79.38
2022-11-26T20:32:20.257Z,77.00
2022-11-26T20:35:09.439Z,75.25
2022-11-26T20:37:58.095Z,77.80
2022-11-26T20:40:48.132Z,71.85
2022-11-26T20:43:36.739Z,71.75
2022-11-26T20:46:26.127Z,70.28
2022-11-26T20:49:16.083Z,66.70
2022-11-26T20:52:07.669Z,66.35
2022-11-26T20:54:56.344Z,65.68
2022-11-26T20:57:46.283Z,63.20
2022-11-26T21:00:34.897Z,65.05
2022-11-26T21:03:23.832Z,61.53
2022-11-26T21:06:13.988Z,59.55
2022-11-26T21:09:04.328Z,59.20
2022-11-26T21:11:52.999Z,58.63
2022-11-26T21:14:42.918Z,55.38
2022-11-26T21:17:31.634Z,55.78
2022-11-26T21:20:20.739Z,54.35
2022-11-26T21:23:10.006Z,53.90
2022-11-26T21:25:58.578Z,51.63
2022-11-26T21:28:51.274Z,47.97
2022-11-26T21:31:41.270Z,49.05
2022-11-26T21:34:29.879Z,49.38
2022-11-26T21:37:18.856Z,47.22
2022-11-26T21:40:08.765Z,45.97
2022-11-26T21:42:57.511Z,45.33
2022-11-26T21:45:46.076Z,46.25
2022-11-26T21:48:36.644Z,41.67
2022-11-26T21:51:27.097Z,42.90
2022-11-26T21:54:16.371Z,42.95
2022-11-26T21:57:05.204Z,42.20
2022-11-26T21:59:53.740Z,38.67
2022-11-26T22:02:42.425Z,38.92
2022-11-26T22:05:32.407Z,38.60
2022-11-26T22:08:21.140Z,37.72
2022-11-26T22:11:10.932Z,38.47
2022-11-26T22:13:59.635Z,36.03
2022-11-26T22:16:51.632Z,35.28
2022-11-26T22:19:40.484Z,34.50
2022-11-26T22:22:30.661Z,33.47
2022-11-26T22:25:19.263Z,33.53
2022-11-26T22:28:07.935Z,33.60
2022-11-26T22:30:56.725Z,31.80
2022-11-26T22:33:45.490Z,31.95
2022-11-26T22:36:34.598Z,31.25
2022-11-26T22:39:24.583Z,31.40
2022-11-26T22:42:13.853Z,27.75
2022-11-26T22:45:03.026Z,29.05
2022-11-26T22:47:52.927Z,28.98
2022-11-26T22:50:41.730Z,28.10
2022-11-26T22:53:30.568Z,28.55
2022-11-26T22:56:20.717Z,28.55
2022-11-26T22:59:10.709Z,26.80
2022-11-26T23:01:59.355Z,26.40
2022-11-26T23:04:48.289Z,26.35
2022-11-26T23:07:36.959Z,26.45
2022-11-26T23:10:28.262Z,25.92
2022-11-26T23:13:18.808Z,25.52
2022-11-26T23:16:09.097Z,23.40
2022-11-26T23:18:58.804Z,23.38
2022-11-26T23:21:47.789Z,23.02
2022-11-26T23:24:36.618Z,22.42
2022-11-26T23:27:25.316Z,22.90
2022-11-26T23:30:15.784Z,21.25
2022-11-26T23:33:04.690Z,21.30
2022-11-26T23:35:53.336Z,20.98
2022-11-26T23:38:42.309Z,22.05
2022-11-26T23:41:31.070Z,19.98
2022-11-26T23:44:19.709Z,19.48
2022-11-26T23:47:09.981Z,19.80
2022-11-26T23:50:00.989Z,19.33
2022-11-26T23:52:49.872Z,18.80
2022-11-26T23:55:38.594Z,17.80
2022-11-26T23:58:27.259Z,18.73
